الصفحة الرئيسية
METAR-TAF:

METAR-TAF

مطار :

مدينة الكويت, الكويت

مطار الكويت الدولي

دائرة عرض: 29-13N, خط طول: 047-59E, ارتفاع: 55 متر

مراقبة الطقس الحالي

تاريخ ووقت الإصدار 25 دقيقة قبل الساعة 08:00UTC
ريح 20 عقدة من الجنوب الشرقي
درجة الحرارة 22°درجة مئوية
الرطوبة 57%
ضغط 1011 hPa
الرؤية: 4000 متر
غيوم قليلة على ارتفاع 4000 قدم
غيوم مفككة على ارتفاع 8000 قدم
هبوب الغبار

METAR: OKBK 220800Z 14020KT 4000 BLDU FEW040 BKN080 22/13 Q1011 NOSIG

زمن: 11:25 (08:25 UTC)

توقعات

تاريخ ووقت الإصدار 21ساعات و 40 دقيقة قبل الساعة 10:45UTC
التوقعات صالحة من21 الساعة 12 UTC إلى 22 الساعة 18 UTC
ريح 12 عقدة من الجنوب/الجنوب الشرقي
الرؤية: 7000 متر
مؤقت
من 21 الساعة 12 UTC إلى 21 الساعة 23 UTC
الرؤية: 4000 متر
غيوم قليلة على ارتفاع 4000 قدم
غيوم متفرقة على ارتفاع 8000 قدم
مطر خفيف

TAF: OKBK 211045Z 2112/2218 15012KT 7000 NSC TEMPO 2112/2123 4000 -RA FEW040 SCT080

أرصاد الطقس والتوقعات من أكثر من 4000 مطار (تقارير الطقس للمطار METAR والتنبؤ بالطقس بالمطارTAF).

المحطات المتاحة هي النقط الصفراء والحمراء على الخريطة.

حرك المؤشر فوق النقطة لمعرفة اسم المحطة.

ثم انقر لمعرفة أرصاد وتوقعات الطقس.

لتغيير الخارطة: اضغط على الأزرار الخضراء مع رمز الصليب الأسود للتكبير. على الزر الأخضر مع شرطة للتصغير، أو على الأسهم الخضراء للخرائط المجاورة.


METAR-TAF: